createdAt,value
2023-02-20T00:01:50.584Z,69.70
2023-02-20T00:04:20.079Z,69.60
2023-02-20T00:06:48.737Z,69.60
2023-02-20T00:09:18.886Z,69.60
2023-02-20T00:11:48.098Z,69.60
2023-02-20T00:14:16.486Z,69.60
2023-02-20T00:16:48.244Z,69.60
2023-02-20T00:19:17.198Z,69.60
2023-02-20T00:21:49.196Z,69.50
2023-02-20T00:24:20.308Z,69.50
2023-02-20T00:26:49.215Z,69.50
2023-02-20T00:29:19.021Z,69.50
2023-02-20T00:31:53.620Z,69.50
2023-02-20T00:34:22.218Z,69.60
2023-02-20T00:36:50.578Z,69.50
2023-02-20T00:39:21.163Z,69.50
2023-02-20T00:41:49.869Z,69.60
2023-02-20T00:44:18.696Z,69.60
2023-02-20T00:46:48.752Z,69.60
2023-02-20T00:49:17.367Z,69.60
2023-02-20T00:51:49.316Z,69.60
2023-02-20T00:54:19.324Z,69.40
2023-02-20T00:56:48.188Z,69.50
2023-02-20T00:59:16.743Z,69.60
2023-02-20T01:01:45.324Z,69.50
2023-02-20T01:04:13.906Z,69.50
2023-02-20T01:06:44.915Z,69.50
2023-02-20T01:09:14.098Z,69.60
2023-02-20T01:11:46.125Z,69.60
2023-02-20T01:14:16.717Z,69.60
2023-02-20T01:16:46.719Z,70.40
2023-02-20T01:19:16.249Z,70.40
2023-02-20T01:21:44.846Z,69.70
2023-02-20T01:24:13.502Z,69.60
2023-02-20T01:26:44.340Z,69.70
2023-02-20T01:29:13.339Z,69.70
2023-02-20T01:31:41.947Z,69.70
2023-02-20T01:34:10.673Z,69.70
2023-02-20T01:36:39.686Z,69.90
2023-02-20T01:39:08.073Z,70.00
2023-02-20T01:41:36.540Z,70.00
2023-02-20T01:44:06.670Z,69.80
2023-02-20T01:46:51.411Z,70.00
2023-02-20T01:49:33.767Z,69.90
2023-02-20T01:52:09.942Z,70.00
2023-02-20T01:54:42.800Z,70.00
2023-02-20T01:57:19.212Z,70.00
2023-02-20T01:59:50.934Z,70.00
2023-02-20T02:02:19.820Z,70.00
2023-02-20T02:04:50.353Z,70.00
2023-02-20T02:07:19.212Z,70.00
2023-02-20T02:09:54.973Z,70.00
2023-02-20T02:12:24.398Z,69.90
2023-02-20T02:14:54.289Z,70.00
2023-02-20T02:17:53.735Z,69.90
2023-02-20T02:21:32.828Z,69.80
2023-02-20T02:24:48.782Z,69.80
2023-02-20T02:28:06.358Z,69.70
2023-02-20T02:31:29.648Z,69.80
2023-02-20T02:34:13.884Z,69.80
2023-02-20T02:37:00.304Z,69.80
2023-02-20T02:39:38.447Z,69.80
2023-02-20T02:42:13.832Z,69.80
2023-02-20T02:44:49.244Z,69.80
2023-02-20T02:47:23.844Z,69.70
2023-02-20T02:49:58.220Z,69.70
2023-02-20T02:52:48.513Z,69.70
2023-02-20T02:55:20.616Z,69.70
2023-02-20T02:57:49.348Z,69.60
2023-02-20T03:00:22.300Z,69.60
2023-02-20T03:02:59.139Z,69.50
2023-02-20T03:05:40.322Z,69.50
2023-02-20T03:08:22.335Z,69.50
2023-02-20T03:10:54.312Z,69.40
2023-02-20T03:13:45.475Z,69.50
2023-02-20T03:16:17.604Z,69.60
2023-02-20T03:18:47.881Z,69.60
2023-02-20T03:21:22.366Z,69.60
2023-02-20T03:23:58.584Z,69.40
2023-02-20T03:26:34.445Z,69.40
2023-02-20T03:29:12.845Z,69.40
2023-02-20T03:31:46.914Z,69.40
2023-02-20T03:34:39.488Z,69.40
2023-02-20T03:37:33.650Z,69.40
2023-02-20T03:40:27.898Z,69.50
2023-02-20T03:43:25.490Z,69.40
2023-02-20T03:46:03.287Z,69.50
2023-02-20T03:48:41.208Z,69.50
2023-02-20T03:51:13.960Z,69.50
2023-02-20T03:53:55.853Z,69.40
2023-02-20T03:56:32.952Z,69.50
2023-02-20T03:59:07.939Z,69.40
2023-02-20T04:01:38.896Z,69.50
2023-02-20T04:04:08.907Z,69.50
2023-02-20T04:06:39.297Z,69.40
2023-02-20T04:09:11.847Z,69.40
2023-02-20T04:11:48.185Z,69.40
2023-02-20T04:14:20.853Z,69.40
2023-02-20T04:16:59.714Z,69.40
2023-02-20T04:19:28.461Z,69.40
2023-02-20T04:22:00.686Z,69.40
2023-02-20T04:24:34.077Z,69.30
2023-02-20T04:27:04.754Z,69.40
2023-02-20T04:29:36.586Z,69.40
2023-02-20T04:32:05.337Z,69.40
2023-02-20T04:34:37.294Z,69.40
2023-02-20T04:37:11.943Z,69.20
2023-02-20T04:39:41.443Z,69.30
2023-02-20T04:42:13.130Z,69.40
2023-02-20T04:44:45.148Z,69.60
2023-02-20T04:47:17.371Z,69.40
2023-02-20T04:49:46.179Z,69.30
2023-02-20T04:52:19.181Z,69.40
2023-02-20T04:54:48.620Z,69.30
2023-02-20T04:57:19.978Z,69.30
2023-02-20T04:59:48.940Z,69.30
2023-02-20T05:02:17.490Z,69.30
2023-02-20T05:04:46.037Z,69.40
2023-02-20T05:07:14.479Z,69.40
2023-02-20T05:09:45.113Z,69.40
2023-02-20T05:12:13.519Z,69.40
2023-02-20T05:14:43.243Z,69.40
2023-02-20T05:17:11.614Z,69.30
2023-02-20T05:19:40.067Z,69.30
2023-02-20T05:22:20.456Z,69.30
2023-02-20T05:24:51.134Z,69.40
2023-02-20T05:27:22.189Z,69.30
2023-02-20T05:29:54.299Z,69.30
2023-02-20T05:32:25.262Z,69.30
2023-02-20T05:34:54.747Z,69.30
2023-02-20T05:37:25.558Z,70.30
2023-02-20T05:39:54.296Z,70.40
2023-02-20T05:42:22.944Z,69.40
2023-02-20T05:44:52.654Z,70.40
2023-02-20T05:47:21.008Z,69.40
2023-02-20T05:49:49.410Z,70.50
2023-02-20T05:52:17.816Z,70.50
2023-02-20T05:54:48.162Z,70.50
2023-02-20T05:57:16.992Z,70.50
2023-02-20T05:59:45.493Z,69.40
2023-02-20T06:02:15.259Z,70.50
2023-02-20T06:04:43.689Z,70.50
2023-02-20T06:07:12.469Z,70.50
2023-02-20T06:09:44.370Z,70.50
2023-02-20T06:12:14.631Z,70.40
2023-02-20T06:14:43.065Z,70.50
2023-02-20T06:17:11.645Z,70.40
2023-02-20T06:19:41.404Z,70.40
2023-02-20T06:22:10.595Z,70.40
2023-02-20T06:24:39.001Z,70.50
2023-02-20T06:27:08.585Z,70.40
2023-02-20T06:29:37.109Z,70.40
2023-02-20T06:32:06.023Z,70.40
2023-02-20T06:34:34.479Z,70.50
2023-02-20T06:37:05.667Z,70.60
2023-02-20T06:39:34.851Z,70.60
2023-02-20T06:42:03.314Z,71.40
2023-02-20T06:44:33.243Z,70.60
2023-02-20T06:47:01.980Z,70.60
2023-02-20T06:49:30.453Z,70.50
2023-02-20T06:51:58.891Z,70.40
2023-02-20T06:54:29.221Z,70.50
2023-02-20T06:56:58.698Z,70.40
2023-02-20T06:59:27.743Z,70.40
2023-02-20T07:01:56.424Z,70.40
2023-02-20T07:04:27.909Z,70.50
2023-02-20T07:06:56.632Z,70.40
2023-02-20T07:09:25.957Z,70.40
2023-02-20T07:11:57.131Z,70.40
2023-02-20T07:14:25.856Z,70.40
2023-02-20T07:16:54.419Z,70.50
2023-02-20T07:19:23.110Z,70.50
2023-02-20T07:21:51.780Z,70.50
2023-02-20T07:24:20.482Z,70.60
2023-02-20T07:26:49.696Z,70.40
2023-02-20T07:29:19.840Z,70.50
2023-02-20T07:31:48.612Z,70.60
2023-02-20T07:34:17.165Z,70.60
2023-02-20T07:36:45.538Z,70.40
2023-02-20T07:39:14.750Z,70.30
2023-02-20T07:41:43.382Z,70.30
2023-02-20T07:44:44.519Z,70.30
2023-02-20T07:47:12.997Z,70.40
2023-02-20T07:49:41.458Z,70.40
2023-02-20T07:52:09.897Z,70.50
2023-02-20T07:54:39.062Z,70.50
2023-02-20T07:57:07.460Z,70.60
2023-02-20T07:59:35.861Z,71.50
2023-02-20T08:02:06.378Z,70.60
2023-02-20T08:04:35.032Z,70.70
2023-02-20T08:07:03.480Z,70.70
2023-02-20T08:09:31.824Z,70.80
2023-02-20T08:12:00.385Z,70.70
2023-02-20T08:14:29.436Z,70.60
2023-02-20T08:16:57.953Z,70.70
2023-02-20T08:19:27.727Z,70.60
2023-02-20T08:21:56.320Z,70.60
2023-02-20T08:24:24.742Z,70.60
2023-02-20T08:26:53.154Z,70.60
2023-02-20T08:29:21.565Z,70.50
2023-02-20T08:31:50.216Z,70.50
2023-02-20T08:34:18.747Z,70.50
2023-02-20T08:36:48.550Z,70.50
2023-02-20T08:39:16.989Z,70.50
2023-02-20T08:41:46.530Z,70.60
2023-02-20T08:44:15.923Z,70.70
2023-02-20T08:46:48.820Z,70.80
2023-02-20T08:49:18.222Z,70.80
2023-02-20T08:51:48.670Z,70.80
2023-02-20T08:54:17.969Z,70.70
2023-02-20T08:56:46.452Z,70.80
2023-02-20T08:59:14.869Z,70.80
2023-02-20T09:01:44.282Z,70.80
2023-02-20T09:04:12.986Z,70.90
2023-02-20T09:06:41.402Z,70.80
2023-02-20T09:09:11.195Z,70.80
2023-02-20T09:11:39.900Z,70.80
2023-02-20T09:14:08.374Z,69.70
2023-02-20T09:16:36.862Z,69.60
2023-02-20T09:19:07.368Z,69.60
2023-02-20T09:21:36.284Z,69.60
2023-02-20T09:24:07.714Z,69.60
2023-02-20T09:26:37.637Z,69.60
2023-02-20T09:29:06.086Z,69.60
2023-02-20T09:31:34.901Z,69.60
2023-02-20T09:34:04.292Z,69.60
2023-02-20T09:36:33.081Z,69.60
2023-02-20T09:39:01.585Z,69.60
2023-02-20T09:41:46.942Z,69.70
2023-02-20T09:44:23.405Z,69.60
2023-02-20T09:46:53.146Z,69.70
2023-02-20T09:49:26.418Z,69.70
2023-02-20T09:52:01.052Z,69.70
2023-02-20T09:54:34.914Z,69.70
2023-02-20T09:57:12.170Z,69.70
2023-02-20T09:59:44.435Z,69.80
2023-02-20T10:02:19.713Z,69.80
2023-02-20T10:05:00.788Z,69.80
2023-02-20T10:07:32.971Z,69.90
2023-02-20T10:10:06.306Z,69.80
2023-02-20T10:12:47.203Z,69.90
2023-02-20T10:15:24.379Z,69.90
2023-02-20T10:18:04.185Z,69.90
2023-02-20T10:20:39.432Z,70.00
2023-02-20T10:23:18.558Z,70.00
2023-02-20T10:25:52.133Z,70.00
2023-02-20T10:28:23.474Z,70.20
2023-02-20T10:31:01.351Z,70.10
2023-02-20T10:33:36.623Z,70.20
2023-02-20T10:36:14.355Z,70.20
2023-02-20T10:38:50.321Z,70.20
2023-02-20T10:41:26.599Z,70.20
2023-02-20T10:44:02.666Z,70.30
2023-02-20T10:46:49.049Z,70.20
2023-02-20T10:49:24.716Z,70.30
2023-02-20T10:51:58.549Z,70.40
2023-02-20T10:54:34.931Z,70.40
2023-02-20T10:57:11.265Z,70.40
2023-02-20T10:59:49.963Z,70.40
2023-02-20T11:02:24.582Z,70.40
2023-02-20T11:04:59.167Z,70.50
2023-02-20T11:07:27.737Z,70.60
2023-02-20T11:09:56.680Z,70.70
2023-02-20T11:12:32.659Z,70.80
2023-02-20T11:15:09.504Z,70.80
2023-02-20T11:17:40.773Z,70.90
2023-02-20T11:20:42.498Z,71.00
2023-02-20T11:23:11.571Z,70.80
2023-02-20T11:25:42.033Z,70.90
2023-02-20T11:28:20.096Z,70.80
2023-02-20T11:30:59.731Z,70.70
2023-02-20T11:33:32.298Z,70.90
2023-02-20T11:36:13.637Z,70.80
2023-02-20T11:38:43.523Z,70.80
2023-02-20T11:41:27.781Z,70.70
2023-02-20T11:44:23.586Z,70.60
2023-02-20T11:47:28.528Z,70.60
2023-02-20T11:50:20.649Z,70.50
2023-02-20T11:53:04.788Z,70.40
2023-02-20T11:55:33.675Z,71.30
2023-02-20T11:58:03.672Z,70.50
2023-02-20T12:00:47.036Z,70.60
2023-02-20T12:03:23.078Z,70.60
2023-02-20T12:05:52.326Z,70.60
2023-02-20T12:08:35.473Z,70.60
2023-02-20T12:11:08.523Z,70.60
2023-02-20T12:13:40.923Z,70.60
2023-02-20T12:16:31.169Z,70.60
2023-02-20T12:19:11.583Z,70.60
2023-02-20T12:22:02.630Z,70.40
2023-02-20T12:25:00.052Z,70.40
2023-02-20T12:27:59.265Z,70.50
2023-02-20T12:30:52.421Z,70.50
2023-02-20T12:33:52.174Z,70.40
2023-02-20T12:36:32.747Z,70.50
2023-02-20T12:39:08.381Z,70.60
2023-02-20T12:41:58.346Z,70.40
2023-02-20T12:44:54.298Z,70.40
2023-02-20T12:47:31.434Z,70.60
2023-02-20T12:50:20.604Z,70.50
2023-02-20T12:53:10.279Z,70.60
2023-02-20T12:55:51.836Z,70.80
2023-02-20T12:58:32.130Z,70.90
2023-02-20T13:01:04.074Z,70.80
2023-02-20T13:03:52.617Z,70.90
2023-02-20T13:06:29.336Z,70.80
2023-02-20T13:09:07.759Z,70.90
2023-02-20T13:11:43.038Z,70.80
2023-02-20T13:14:32.204Z,70.90
2023-02-20T13:17:13.717Z,70.80
2023-02-20T13:19:51.560Z,71.00
2023-02-20T13:22:20.052Z,71.00
2023-02-20T13:24:49.911Z,70.90
2023-02-20T13:27:32.177Z,70.90
2023-02-20T13:30:03.121Z,71.00
2023-02-20T13:32:34.008Z,71.00
2023-02-20T13:35:35.553Z,71.00
2023-02-20T13:38:15.701Z,70.90
2023-02-20T13:40:47.109Z,71.00
2023-02-20T13:43:33.725Z,70.90
2023-02-20T13:46:30.436Z,70.90
2023-02-20T13:48:58.961Z,70.90
2023-02-20T13:51:33.002Z,70.90
2023-02-20T13:54:26.723Z,71.00
2023-02-20T13:57:04.857Z,70.90
2023-02-20T13:59:37.473Z,70.90
2023-02-20T14:02:20.188Z,70.90
2023-02-20T14:05:01.116Z,71.80
2023-02-20T14:07:32.305Z,71.00
2023-02-20T14:10:07.955Z,71.10
2023-02-20T14:12:39.178Z,71.10
2023-02-20T14:15:09.192Z,71.10
2023-02-20T14:17:39.706Z,71.10
2023-02-20T14:20:20.063Z,71.10
2023-02-20T14:22:50.409Z,71.10
2023-02-20T14:25:27.252Z,71.10
2023-02-20T14:28:09.346Z,71.20
2023-02-20T14:30:38.125Z,71.30
2023-02-20T14:33:22.705Z,71.30
2023-02-20T14:36:04.829Z,71.40
2023-02-20T14:38:51.630Z,71.40
2023-02-20T14:41:24.518Z,71.40
2023-02-20T14:44:01.382Z,71.40
2023-02-20T14:46:32.019Z,71.40
2023-02-20T14:49:10.022Z,71.40
2023-02-20T14:51:38.820Z,71.50
2023-02-20T14:54:20.561Z,71.50
2023-02-20T14:56:50.483Z,71.60
2023-02-20T14:59:27.724Z,71.60
2023-02-20T15:01:59.874Z,71.70
2023-02-20T15:04:29.159Z,71.60
2023-02-20T15:07:05.503Z,71.80
2023-02-20T15:09:39.782Z,71.90
2023-02-20T15:12:09.527Z,71.90
2023-02-20T15:14:44.483Z,71.90
2023-02-20T15:17:25.741Z,71.90
2023-02-20T15:19:56.452Z,72.00
2023-02-20T15:22:32.522Z,71.90
2023-02-20T15:25:21.828Z,72.00
2023-02-20T15:28:11.880Z,72.00
2023-02-20T15:31:06.191Z,72.00
2023-02-20T15:33:37.865Z,72.00
2023-02-20T15:36:11.242Z,72.00
2023-02-20T15:38:40.148Z,72.00
2023-02-20T15:41:08.706Z,72.00
2023-02-20T15:43:46.680Z,72.00
2023-02-20T15:46:18.261Z,71.90
2023-02-20T15:48:47.120Z,72.00
2023-02-20T15:51:22.059Z,72.00
2023-02-20T15:53:52.635Z,72.00
2023-02-20T15:56:21.088Z,72.00
2023-02-20T15:58:50.613Z,72.00
2023-02-20T16:01:20.450Z,72.00
2023-02-20T16:03:52.665Z,72.00
2023-02-20T16:06:22.695Z,72.00
2023-02-20T16:08:52.418Z,72.10
2023-02-20T16:11:23.864Z,72.10
2023-02-20T16:13:56.685Z,72.10
2023-02-20T16:16:37.263Z,72.20
2023-02-20T16:19:15.039Z,72.20
2023-02-20T16:21:56.877Z,72.20
2023-02-20T16:24:26.926Z,72.20
2023-02-20T16:26:55.961Z,72.20
2023-02-20T16:29:30.166Z,72.20
2023-02-20T16:32:20.913Z,72.30
2023-02-20T16:34:50.613Z,72.30
2023-02-20T16:37:20.262Z,72.20
2023-02-20T16:39:49.410Z,72.40
2023-02-20T16:42:34.696Z,72.20
2023-02-20T16:45:07.008Z,72.50
2023-02-20T16:47:36.728Z,72.20
2023-02-20T16:50:07.377Z,72.20
2023-02-20T16:52:38.144Z,72.40
2023-02-20T16:55:09.755Z,72.20
2023-02-20T16:57:38.301Z,72.40
2023-02-20T17:00:07.953Z,72.40
2023-02-20T17:02:37.979Z,72.50
2023-02-20T17:05:07.026Z,72.40
2023-02-20T17:07:35.517Z,72.40
2023-02-20T17:10:04.082Z,72.40
2023-02-20T17:12:33.937Z,72.40
2023-02-20T17:15:03.678Z,72.40
2023-02-20T17:17:33.148Z,72.40
2023-02-20T17:20:03.905Z,72.50
2023-02-20T17:22:32.488Z,72.50
2023-02-20T17:25:01.057Z,72.50
2023-02-20T17:27:29.491Z,72.50
2023-02-20T17:29:58.123Z,72.50
2023-02-20T17:32:28.233Z,72.50
2023-02-20T17:34:56.712Z,72.50
2023-02-20T17:37:30.280Z,72.50
2023-02-20T17:39:58.916Z,72.50
2023-02-20T17:42:28.478Z,72.40
2023-02-20T17:44:57.019Z,72.50
2023-02-20T17:47:26.070Z,72.50
2023-02-20T17:49:56.877Z,72.50
2023-02-20T17:52:26.679Z,72.50
2023-02-20T17:54:56.051Z,72.50
2023-02-20T17:57:24.740Z,72.60
2023-02-20T17:59:53.138Z,72.60
2023-02-20T18:02:22.177Z,72.60
2023-02-20T18:04:50.528Z,72.50
2023-02-20T18:07:19.086Z,72.40
2023-02-20T18:09:48.969Z,72.60
2023-02-20T18:12:17.599Z,72.60
2023-02-20T18:14:46.575Z,72.60
2023-02-20T18:17:15.108Z,72.70
2023-02-20T18:19:43.539Z,72.70
2023-02-20T18:22:11.927Z,72.70
2023-02-20T18:24:40.351Z,72.60
2023-02-20T18:27:12.216Z,72.70
2023-02-20T18:29:40.955Z,72.70
2023-02-20T18:32:10.192Z,72.70
2023-02-20T18:34:38.663Z,72.70
2023-02-20T18:37:07.218Z,72.70
2023-02-20T18:39:36.021Z,72.70
2023-02-20T18:42:04.741Z,72.70
2023-02-20T18:44:34.536Z,72.70
2023-02-20T18:47:06.048Z,72.70
2023-02-20T18:49:38.322Z,72.70
2023-02-20T18:52:06.807Z,72.60
2023-02-20T18:54:35.494Z,72.60
2023-02-20T18:57:05.050Z,72.70
2023-02-20T18:59:34.857Z,72.70
2023-02-20T19:02:05.932Z,72.60
2023-02-20T19:04:34.455Z,72.60
2023-02-20T19:07:03.933Z,72.70
2023-02-20T19:09:36.776Z,72.70
2023-02-20T19:12:07.957Z,72.70
2023-02-20T19:14:38.054Z,72.70
2023-02-20T19:17:07.762Z,72.70
2023-02-20T19:19:36.481Z,72.70
2023-02-20T19:22:05.220Z,72.70
2023-02-20T19:24:33.672Z,72.70
2023-02-20T19:27:02.215Z,72.70
2023-02-20T19:29:30.568Z,72.70
2023-02-20T19:32:01.450Z,72.60
2023-02-20T19:34:29.931Z,72.60
2023-02-20T19:36:58.545Z,72.70
2023-02-20T19:39:28.442Z,72.70
2023-02-20T19:41:57.001Z,72.70
2023-02-20T19:44:25.445Z,72.80
2023-02-20T19:46:54.383Z,72.70
2023-02-20T19:49:24.231Z,72.70
2023-02-20T19:51:55.100Z,72.70
2023-02-20T19:54:26.048Z,72.80
2023-02-20T19:56:58.151Z,72.90
2023-02-20T19:59:27.070Z,72.80
2023-02-20T20:01:58.608Z,72.80
2023-02-20T20:04:36.725Z,72.90
2023-02-20T20:07:11.039Z,72.90
2023-02-20T20:09:41.854Z,73.00
2023-02-20T20:13:29.327Z,72.90
2023-02-20T20:18:58.388Z,73.00
2023-02-20T20:21:28.833Z,72.90
2023-02-20T20:23:59.839Z,72.90
2023-02-20T20:26:34.279Z,72.90
2023-02-20T20:29:04.934Z,73.00
2023-02-20T20:31:37.726Z,73.10
2023-02-20T20:34:07.097Z,73.10
2023-02-20T20:36:37.296Z,73.10
2023-02-20T20:39:06.290Z,73.20
2023-02-20T20:41:44.381Z,73.10
2023-02-20T20:44:13.995Z,73.10
2023-02-20T20:46:42.505Z,73.20
2023-02-20T20:49:12.899Z,73.00
2023-02-20T20:51:45.271Z,73.20
2023-02-20T20:54:14.009Z,73.20
2023-02-20T20:56:47.531Z,73.20
2023-02-20T20:59:17.771Z,73.30
2023-02-20T21:01:46.688Z,73.20
2023-02-20T21:04:15.532Z,73.20
2023-02-20T21:06:45.708Z,73.30
2023-02-20T21:09:14.692Z,73.30
2023-02-20T21:11:44.994Z,73.20
2023-02-20T21:14:13.406Z,73.20
2023-02-20T21:16:41.906Z,73.10
2023-02-20T21:19:10.386Z,73.20
2023-02-20T21:21:39.227Z,73.20
2023-02-20T21:24:09.466Z,73.20
2023-02-20T21:26:39.987Z,73.20
2023-02-20T21:29:09.189Z,73.30
2023-02-20T21:31:38.014Z,73.20
2023-02-20T21:34:08.065Z,73.20
2023-02-20T21:36:36.741Z,73.20
2023-02-20T21:39:05.755Z,73.20
2023-02-20T21:41:53.240Z,73.30
2023-02-20T21:44:30.350Z,73.30
2023-02-20T21:47:01.039Z,73.40
2023-02-20T21:49:32.268Z,73.40
2023-02-20T21:52:02.751Z,73.30
2023-02-20T21:54:33.098Z,73.20
2023-02-20T21:57:03.196Z,73.20
2023-02-20T21:59:31.524Z,73.20
2023-02-20T22:01:59.139Z,73.40
2023-02-20T22:04:26.909Z,73.30
2023-02-20T22:07:13.133Z,73.30
2023-02-20T22:09:59.241Z,73.20
2023-02-20T22:12:55.383Z,73.20
2023-02-20T22:18:59.560Z,73.30
2023-02-20T22:21:45.655Z,73.20
2023-02-20T22:24:38.711Z,73.40
2023-02-20T22:27:27.065Z,73.20
2023-02-20T22:30:15.900Z,73.40
2023-02-20T22:33:03.359Z,73.20
2023-02-20T22:35:49.400Z,73.40
2023-02-20T22:38:35.437Z,73.30
2023-02-20T22:41:21.508Z,73.40
2023-02-20T22:44:07.561Z,73.30
2023-02-20T22:47:19.612Z,73.30
2023-02-20T22:50:05.620Z,73.40
2023-02-20T22:52:51.586Z,73.30
2023-02-20T22:55:37.927Z,73.30
2023-02-20T22:58:23.695Z,73.30
2023-02-20T23:01:09.780Z,73.30
2023-02-20T23:03:59.436Z,73.30
2023-02-20T23:06:45.869Z,73.40
2023-02-20T23:09:32.428Z,73.30
2023-02-20T23:12:18.732Z,73.40
2023-02-20T23:15:06.176Z,74.20
2023-02-20T23:17:52.129Z,73.30
2023-02-20T23:20:42.194Z,73.30
2023-02-20T23:23:29.723Z,73.30
2023-02-20T23:26:15.658Z,73.30
2023-02-20T23:29:01.893Z,73.40
2023-02-20T23:31:53.505Z,73.40
2023-02-20T23:34:39.419Z,73.40
2023-02-20T23:37:26.774Z,73.40
2023-02-20T23:40:13.453Z,73.40
2023-02-20T23:42:59.972Z,73.40
2023-02-20T23:45:46.206Z,73.40
2023-02-20T23:48:35.839Z,73.40
2023-02-20T23:51:21.920Z,73.40
2023-02-20T23:54:09.115Z,73.40
2023-02-20T23:56:55.155Z,73.40
2023-02-20T23:59:41.309Z,73.40
